Obelix — 7JAX — position and weather

sailwx.info

Track history (hours):
 
Tides and Currents Weather Stations Pressure Air Temp Water Temp Dewpoint Dewpoint Depression Visibility Wind Speed Wind Dir Waves Ship Positions

Obelix

Last reported at 2014-Oct-21 08:06 UTC. Time now 2014-Oct-21 20:06 UTC.
Position N 35°11' E 139°46'.

Length 74 m; draft 4.5 m.

Type: Ship (hazmat cat D). MMSI: 432528000.

Date/timePositionNaut miles runAvg speedWind from/ knotsBaromVisibWave heightAir tempDewpointWater temp
2014-Oct-21 08:06N 35°11' E 139°46'611.6
2014-Oct-21 07:33N 35°17' E 139°45'1010.0
2014-Oct-21 06:33N 35°27' E 139°48'1110.2
2014-Oct-21 05:31N 35°29' E 140°00'1 0.1
2014-Oct-20 23:06N 35°29' E 140°01'4 6.4
2014-Oct-20 22:32N 35°29' E 139°57'2 0.8
2014-Oct-20 20:33N 35°28' E 139°55'0 0.0
2014-Oct-20 19:06N 35°28' E 139°55'0 0.0
2014-Oct-20 18:33N 35°28' E 139°55'0 0.0
2014-Oct-20 17:24N 35°28' E 139°55'0 0.0
2014-Oct-20 16:33N 35°28' E 139°55'0 0.0
2014-Oct-20 15:33N 35°28' E 139°55'0 0.0
2014-Oct-20 14:30N 35°28' E 139°55'0 0.0
2014-Oct-20 13:33N 35°28' E 139°55'0 0.1
2014-Oct-20 12:12N 35°28' E 139°55'0 0.0
2014-Oct-20 10:03N 35°28' E 139°55'0 0.0
2014-Oct-20 09:30N 35°28' E 139°55'0 0.0
2014-Oct-20 07:27N 35°28' E 139°55'0 0.0
2014-Oct-20 05:30N 35°28' E 139°55'0 0.0
2014-Oct-20 03:09N 35°28' E 139°55'0 0.0
2014-Oct-20 02:30N 35°28' E 139°55'0 0.0
2014-Oct-20 01:15N 35°28' E 139°55'0 0.0
2014-Oct-19 23:24N 35°28' E 139°55'0 0.0
2014-Oct-19 22:33N 35°28' E 139°55'0 0.0
2014-Oct-19 21:33N 35°28' E 139°55'0 0.0
2014-Oct-19 19:24N 35°28' E 139°55'0 0.0
2014-Oct-19 18:33N 35°28' E 139°55'0 0.0
2014-Oct-19 17:33N 35°28' E 139°55'5 5.5
2014-Oct-19 16:34N 35°26' E 139°49'1110.7
2014-Oct-19 15:33N 35°15' E 139°47'2 0.1
2014-Oct-18 07:32N 35°17' E 139°45'1010.5
2014-Oct-18 06:33N 35°27' E 139°47'1111.0
2014-Oct-18 05:33N 35°29' E 140°00'1 0.1
2014-Oct-17 23:04N 35°29' E 140°01'4 7.1
2014-Oct-17 22:30N 35°29' E 139°56'1 0.6
2014-Oct-17 20:30N 35°28' E 139°55'0 0.0
2014-Oct-17 19:33N 35°28' E 139°55'0 0.0
2014-Oct-17 18:33N 35°28' E 139°55'0 0.0
2014-Oct-17 17:27N 35°28' E 139°55'1 1.4
2014-Oct-17 16:32N 35°28' E 139°53'1010.3
2014-Oct-17 15:33N 35°21' E 139°45'1110.9
2014-Oct-17 14:33N 35°10' E 139°47'24610.1
2014-Oct-16 14:12N 34°01' E 134°60'812.9
2014-Oct-16 13:34N 34°10' E 134°58'1413.2
2014-Oct-16 12:31N 34°23' E 134°60'1213.0
2014-Oct-16 11:33N 34°35' E 135°04'1313.2
2014-Oct-16 10:33N 34°40' E 134°49'3 0.3
2014-Oct-16 03:04N 34°43' E 134°47'6 0.9
2014-Oct-15 20:30N 34°38' E 134°52'1010.8
2014-Oct-15 19:34N 34°36' E 135°04'1211.4
2014-Oct-15 18:33N 34°24' E 135°02'1212.1
2014-Oct-15 17:34N 34°13' E 134°59'1312.5
2014-Oct-15 16:33N 33°60' E 135°01'24510.6
2014-Oct-14 17:21N 35°12' E 139°45'1012.4
2014-Oct-14 16:33N 35°21' E 139°42'1312.5
2014-Oct-14 15:33N 35°31' E 139°52'3 2.7
2014-Oct-14 14:19N 35°33' E 139°55'0 0.0
2014-Oct-12 13:15N 35°33' E 139°55'0 0.0
2014-Oct-12 06:33N 35°33' E 139°55'3 2.9
2014-Oct-12 05:24N 35°31' E 139°58'3 0.4
2014-Oct-11 22:10N 35°29' E 139°55'1 1.5
2014-Oct-11 21:31N 35°29' E 139°54'0 0.0
2014-Oct-11 19:28N 35°29' E 139°54'0 0.0
2014-Oct-11 18:28N 35°29' E 139°54'0 0.0
2014-Oct-11 17:31N 35°29' E 139°54'0 0.0
2014-Oct-11 15:31N 35°29' E 139°54'2 1.9
2014-Oct-11 14:33N 35°28' E 139°52'1110.9
2014-Oct-11 13:33N 35°20' E 139°44'1110.7
2014-Oct-11 12:33N 35°09' E 139°46'  
Track history (hours):
 
Tides and Currents Weather Stations Pressure Air Temp Water Temp Dewpoint Dewpoint Depression Visibility Wind Speed Wind Dir Waves Ship Positions

Obelix

Last reported at 2014-Oct-21 08:06 UTC. Time now 2014-Oct-21 20:06 UTC.
Position N 35°11' E 139°46'.

Length 74 m; draft 4.5 m.

Type: Ship (hazmat cat D). MMSI: 432528000.

Date/timePositionNaut miles runAvg speedWind from/ knotsBaromVisibWave heightAir tempDewpointWater temp
2014-Oct-21 08:06N 35°11' E 139°46'611.6
2014-Oct-21 07:33N 35°17' E 139°45'1010.0
2014-Oct-21 06:33N 35°27' E 139°48'1110.2
2014-Oct-21 05:31N 35°29' E 140°00'1 0.1
2014-Oct-20 23:06N 35°29' E 140°01'4 6.4
2014-Oct-20 22:32N 35°29' E 139°57'2 0.8
2014-Oct-20 20:33N 35°28' E 139°55'0 0.0
2014-Oct-20 19:06N 35°28' E 139°55'0 0.0
2014-Oct-20 18:33N 35°28' E 139°55'0 0.0
2014-Oct-20 17:24N 35°28' E 139°55'0 0.0
2014-Oct-20 16:33N 35°28' E 139°55'0 0.0
2014-Oct-20 15:33N 35°28' E 139°55'0 0.0
2014-Oct-20 14:30N 35°28' E 139°55'0 0.0
2014-Oct-20 13:33N 35°28' E 139°55'0 0.1
2014-Oct-20 12:12N 35°28' E 139°55'0 0.0
2014-Oct-20 10:03N 35°28' E 139°55'0 0.0
2014-Oct-20 09:30N 35°28' E 139°55'0 0.0
2014-Oct-20 07:27N 35°28' E 139°55'0 0.0
2014-Oct-20 05:30N 35°28' E 139°55'0 0.0
2014-Oct-20 03:09N 35°28' E 139°55'0 0.0
2014-Oct-20 02:30N 35°28' E 139°55'0 0.0
2014-Oct-20 01:15N 35°28' E 139°55'0 0.0
2014-Oct-19 23:24N 35°28' E 139°55'0 0.0
2014-Oct-19 22:33N 35°28' E 139°55'0 0.0
2014-Oct-19 21:33N 35°28' E 139°55'0 0.0
2014-Oct-19 19:24N 35°28' E 139°55'0 0.0
2014-Oct-19 18:33N 35°28' E 139°55'0 0.0
2014-Oct-19 17:33N 35°28' E 139°55'5 5.5
2014-Oct-19 16:34N 35°26' E 139°49'1110.7
2014-Oct-19 15:33N 35°15' E 139°47'2 0.1
2014-Oct-18 07:32N 35°17' E 139°45'1010.5
2014-Oct-18 06:33N 35°27' E 139°47'1111.0
2014-Oct-18 05:33N 35°29' E 140°00'1 0.1
2014-Oct-17 23:04N 35°29' E 140°01'4 7.1
2014-Oct-17 22:30N 35°29' E 139°56'1 0.6
2014-Oct-17 20:30N 35°28' E 139°55'0 0.0
2014-Oct-17 19:33N 35°28' E 139°55'0 0.0
2014-Oct-17 18:33N 35°28' E 139°55'0 0.0
2014-Oct-17 17:27N 35°28' E 139°55'1 1.4
2014-Oct-17 16:32N 35°28' E 139°53'1010.3
2014-Oct-17 15:33N 35°21' E 139°45'1110.9
2014-Oct-17 14:33N 35°10' E 139°47'24610.1
2014-Oct-16 14:12N 34°01' E 134°60'812.9
2014-Oct-16 13:34N 34°10' E 134°58'1413.2
2014-Oct-16 12:31N 34°23' E 134°60'1213.0
2014-Oct-16 11:33N 34°35' E 135°04'1313.2
2014-Oct-16 10:33N 34°40' E 134°49'3 0.3
2014-Oct-16 03:04N 34°43' E 134°47'6 0.9
2014-Oct-15 20:30N 34°38' E 134°52'1010.8
2014-Oct-15 19:34N 34°36' E 135°04'1211.4
2014-Oct-15 18:33N 34°24' E 135°02'1212.1
2014-Oct-15 17:34N 34°13' E 134°59'1312.5
2014-Oct-15 16:33N 33°60' E 135°01'24510.6
2014-Oct-14 17:21N 35°12' E 139°45'1012.4
2014-Oct-14 16:33N 35°21' E 139°42'1312.5
2014-Oct-14 15:33N 35°31' E 139°52'3 2.7
2014-Oct-14 14:19N 35°33' E 139°55'0 0.0
2014-Oct-12 13:15N 35°33' E 139°55'0 0.0
2014-Oct-12 06:33N 35°33' E 139°55'3 2.9
2014-Oct-12 05:24N 35°31' E 139°58'3 0.4
2014-Oct-11 22:10N 35°29' E 139°55'1 1.5
2014-Oct-11 21:31N 35°29' E 139°54'0 0.0
2014-Oct-11 19:28N 35°29' E 139°54'0 0.0
2014-Oct-11 18:28N 35°29' E 139°54'0 0.0
2014-Oct-11 17:31N 35°29' E 139°54'0 0.0
2014-Oct-11 15:31N 35°29' E 139°54'2 1.9
2014-Oct-11 14:33N 35°28' E 139°52'1110.9
2014-Oct-11 13:33N 35°20' E 139°44'1110.7
2014-Oct-11 12:33N 35°09' E 139°46'  

Dump ship's entire track history